CheckWX is a tool to help pilots better visualize weather data.  It is not intended as a substitute for an official pre-flight weather briefing.

19:36:06 UTC

HTMT METAR
Mtwara Airport
Mtwara, Tanzania
Current

3 hours ago

HTMT 191700Z 00000KT 9999 FEW022 BKN080 28/25 Q1009
Observed
Feb-19 @ 17:00 UTC
Visibility
10,000+ meters
Flight Rules
VFR
Cloud Levels
  • Few at 2,200' AGL
  • Broken at 8,000' AGL
Temperature
28°C / 82°F
Dewpoint
25°C / 77°F
Humidity
84%
Altimeter
29.79" Hg
Pressure
1008.92 hPa
Previous

4 hours ago

HTMT 191600Z 00000KT 9999 FEW022 BKN080 28/25 Q1009
Observed
Feb-19 @ 16:00 UTC
Visibility
10,000+ meters
Flight Rules
VFR
Cloud Levels
  • Few at 2,200' AGL
  • Broken at 8,000' AGL
Temperature
28°C / 82°F
Dewpoint
25°C / 77°F
Humidity
84%
Altimeter
29.79" Hg
Pressure
1008.92 hPa
Previous

5 hours ago

HTMT 191500Z 36010KT 9999 FEW021 FEW022CB BKN080 29/24 Q1008
Observed
Feb-19 @ 15:00 UTC
Wind
  • 360° at 10 KTS
Visibility
10,000+ meters
Flight Rules
VFR
Cloud Levels
  • Few at 2,100' AGL
  • Few at 2,200' AGL
  • Broken at 8,000' AGL
Temperature
29°C / 84°F
Dewpoint
24°C / 75°F
Humidity
74%
Altimeter
29.76" Hg
Pressure
1007.92 hPa